Time;durP1;ratioP1;P1;durP2;ratioP2;P2;SDS_P1;SDS_P2;PMS_P1;PMS_P2;Temp;Humidity;BMP_temperature;BMP_pressure;BME280_temperature;BME280_humidity;BME280_pressure;Samples;Min_cycle;Max_cycle;Signal;HPM_P1;HPM_P2
2023/01/18 00:02:00;;;;;;;8.73;7.20;;;;;;;;;;5037682;27;100022;-74
2023/01/18 00:04:26;;;;;;;10.48;7.13;;;;;;;;;;5027669;27;98249;-73
2023/01/18 00:06:53;;;;;;;9.10;7.85;;;;;;;;;;5026684;27;98525;-74
2023/01/18 00:09:19;;;;;;;10.63;7.47;;;;;;;;;;5030049;27;99925;-73
2023/01/18 00:11:47;;;;;;;10.65;7.22;;;;;;;;;;5022029;27;101387;-74
2023/01/18 00:14:14;;;;;;;12.25;7.40;;;;;;;;;;5026307;27;98669;-73
2023/01/18 00:16:40;;;;;;;8.38;7.53;;;;;;;;;;5027935;27;98284;-73
2023/01/18 00:19:11;;;;;;;10.88;7.32;;;;;;;;;;5026832;27;99609;-74
2023/01/18 00:21:38;;;;;;;10.90;7.90;;;;;;;;;;5026442;27;99307;-73
2023/01/18 00:24:09;;;;;;;11.52;8.15;;;;;;;;;;5025445;28;98468;-74
2023/01/18 00:26:36;;;;;;;15.77;8.48;;;;;;;;;;5026850;27;100432;-74
2023/01/18 00:29:03;;;;;;;9.73;8.73;;;;;;;;;;5027094;27;100050;-74
2023/01/18 00:31:30;;;;;;;11.90;9.00;;;;;;;;;;5028231;28;98536;-73
2023/01/18 00:33:56;;;;;;;13.07;7.50;;;;;;;;;;5010461;28;99717;-74
2023/01/18 00:36:23;;;;;;;9.18;8.30;;;;;;;;;;5017546;28;98309;-74
2023/01/18 00:38:52;;;;;;;11.43;8.38;;;;;;;;;;5022574;28;100231;-73
2023/01/18 00:41:20;;;;;;;13.98;8.68;;;;;;;;;;5026150;27;99996;-73
2023/01/18 00:43:47;;;;;;;13.85;9.10;;;;;;;;;;5027220;27;98443;-73
2023/01/18 00:46:15;;;;;;;11.85;8.60;;;;;;;;;;5026972;27;98625;-74
2023/01/18 00:48:42;;;;;;;13.05;8.73;;;;;;;;;;5021493;28;99993;-74
2023/01/18 00:51:09;;;;;;;9.35;8.43;;;;;;;;;;5027616;28;98395;-73
2023/01/18 00:53:37;;;;;;;9.70;7.57;;;;;;;;;;5028189;28;99554;-73
2023/01/18 00:56:07;;;;;;;11.10;8.70;;;;;;;;;;5027548;27;98335;-72
2023/01/18 00:58:36;;;;;;;15.25;7.68;;;;;;;;;;5027419;27;99410;-73
2023/01/18 01:01:03;;;;;;;9.63;8.57;;;;;;;;;;5021578;27;99321;-72
2023/01/18 01:06:42;;;;;;;11.57;8.98;;;;;;;;;;5021327;28;98214;-73
2023/01/18 01:09:02;;;;;;;13.90;8.50;;;;;;;;;;5024716;28;99883;-73
2023/01/18 01:11:28;;;;;;;10.10;7.43;;;;;;;;;;5014916;28;99827;-73
2023/01/18 01:27:39;;;;;;;11.75;8.10;;;;;;;;;;5022257;28;99736;-73
2023/01/18 01:30:06;;;;;;;12.10;7.88;;;;;;;;;;5027020;28;100027;-73
2023/01/18 01:32:33;;;;;;;16.17;7.82;;;;;;;;;;5026638;27;98308;-73
2023/01/18 01:34:59;;;;;;;9.23;7.72;;;;;;;;;;5023040;27;99363;-73
2023/01/18 01:37:25;;;;;;;10.43;8.38;;;;;;;;;;5028667;27;100126;-73
2023/01/18 01:39:51;;;;;;;11.85;7.15;;;;;;;;;;5030297;27;98204;-72
2023/01/18 01:42:18;;;;;;;11.00;7.70;;;;;;;;;;5019855;28;99857;-71
2023/01/18 01:44:46;;;;;;;8.77;7.72;;;;;;;;;;5027286;28;99457;-73
2023/01/18 01:47:18;;;;;;;11.68;7.80;;;;;;;;;;5025146;27;98998;-73
2023/01/18 01:49:47;;;;;;;8.82;7.93;;;;;;;;;;5026105;28;100081;-73
2023/01/18 01:52:15;;;;;;;9.65;7.32;;;;;;;;;;5026755;27;98145;-73
2023/01/18 01:54:46;;;;;;;10.38;6.80;;;;;;;;;;5019986;28;99413;-73
2023/01/18 01:57:15;;;;;;;7.53;6.63;;;;;;;;;;5025863;28;100065;-73
2023/01/18 01:59:45;;;;;;;10.38;6.75;;;;;;;;;;5029551;28;98404;-73
2023/01/18 02:02:11;;;;;;;12.20;7.70;;;;;;;;;;5011322;28;99934;-73
2023/01/18 02:04:43;;;;;;;8.43;7.63;;;;;;;;;;5023029;27;98226;-72
2023/01/18 02:07:12;;;;;;;12.63;7.68;;;;;;;;;;5024775;27;99744;-73
2023/01/18 02:09:39;;;;;;;9.60;7.55;;;;;;;;;;5021113;27;99905;-73
2023/01/18 02:12:05;;;;;;;8.75;7.10;;;;;;;;;;5024066;28;98246;-73
2023/01/18 02:14:32;;;;;;;11.30;7.68;;;;;;;;;;5019061;27;99438;-73
2023/01/18 02:17:21;;;;;;;9.93;7.70;;;;;;;;;;5025938;27;100734;-73
2023/01/18 02:19:54;;;;;;;8.90;7.15;;;;;;;;;;5014087;28;98322;-73
2023/01/18 02:22:35;;;;;;;10.68;8.10;;;;;;;;;;5022562;28;99600;-73
2023/01/18 02:25:08;;;;;;;12.73;7.43;;;;;;;;;;5012884;28;98210;-73
2023/01/18 02:27:42;;;;;;;8.63;7.68;;;;;;;;;;5020843;27;98607;-73
2023/01/18 02:30:11;;;;;;;7.80;6.80;;;;;;;;;;5024619;27;99957;-73
2023/01/18 02:32:45;;;;;;;8.45;7.00;;;;;;;;;;5024607;27;99430;-73
2023/01/18 02:35:24;;;;;;;13.35;7.45;;;;;;;;;;5020597;28;99427;-74
2023/01/18 02:38:06;;;;;;;14.43;7.15;;;;;;;;;;5012562;27;99938;-74
2023/01/18 02:40:52;;;;;;;10.25;7.32;;;;;;;;;;5006721;28;98320;-74
2023/01/18 02:46:29;;;;;;;8.93;7.57;;;;;;;;;;5028325;27;100387;-73
2023/01/18 02:48:56;;;;;;;9.82;7.40;;;;;;;;;;5021326;27;99557;-73
2023/01/18 02:51:23;;;;;;;12.77;7.90;;;;;;;;;;5023584;28;100662;-73
2023/01/18 02:53:50;;;;;;;13.35;7.75;;;;;;;;;;5028871;28;98264;-73
2023/01/18 02:56:23;;;;;;;13.23;9.13;;;;;;;;;;5027970;28;99444;-73
2023/01/18 02:59:03;;;;;;;9.40;7.82;;;;;;;;;;5028308;27;100435;-73
2023/01/18 03:01:33;;;;;;;12.57;7.82;;;;;;;;;;5033780;27;98149;-72
2023/01/18 03:04:02;;;;;;;9.55;7.35;;;;;;;;;;5029580;28;99308;-72
2023/01/18 03:06:28;;;;;;;12.70;7.72;;;;;;;;;;5028098;28;100759;-72
2023/01/18 03:08:57;;;;;;;12.35;7.50;;;;;;;;;;5031162;27;98340;-74
2023/01/18 03:11:29;;;;;;;10.35;7.75;;;;;;;;;;5028747;28;100083;-73
2023/01/18 03:14:14;;;;;;;13.57;7.50;;;;;;;;;;5022614;28;98384;-73
2023/01/18 03:16:56;;;;;;;13.63;7.28;;;;;;;;;;5022728;28;99793;-72
2023/01/18 03:25:18;;;;;;;10.40;7.60;;;;;;;;;;5020001;28;99487;-72
2023/01/18 03:36:04;;;;;;;8.60;7.57;;;;;;;;;;5032206;27;98368;-73
2023/01/18 03:38:32;;;;;;;20.45;9.05;;;;;;;;;;5028696;27;99538;-73
2023/01/18 03:40:59;;;;;;;11.27;8.32;;;;;;;;;;5027907;27;100161;-73
2023/01/18 03:43:26;;;;;;;14.10;9.50;;;;;;;;;;5026153;28;98326;-73
2023/01/18 03:45:53;;;;;;;11.02;8.10;;;;;;;;;;5028897;27;99836;-74
2023/01/18 03:48:20;;;;;;;12.05;7.88;;;;;;;;;;5025904;27;99991;-74
2023/01/18 03:50:50;;;;;;;13.88;8.27;;;;;;;;;;5028714;27;99066;-72
2023/01/18 03:53:27;;;;;;;9.35;8.07;;;;;;;;;;5023050;27;98571;-74
2023/01/18 03:56:00;;;;;;;10.80;8.45;;;;;;;;;;5016249;28;99607;-73
2023/01/18 03:58:31;;;;;;;16.02;9.52;;;;;;;;;;5014951;28;99624;-72
2023/01/18 04:00:57;;;;;;;9.73;8.73;;;;;;;;;;5027846;27;100588;-73
2023/01/18 04:03:24;;;;;;;10.23;8.65;;;;;;;;;;5022069;27;98595;-73
2023/01/18 04:05:50;;;;;;;13.02;8.30;;;;;;;;;;5026989;27;98755;-73
2023/01/18 04:08:20;;;;;;;11.63;8.45;;;;;;;;;;5026780;27;100150;-72
2023/01/18 04:10:47;;;;;;;11.10;9.60;;;;;;;;;;5019217;27;98243;-73
2023/01/18 04:13:13;;;;;;;12.00;9.35;;;;;;;;;;5027849;28;99632;-73
2023/01/18 04:15:39;;;;;;;15.88;9.23;;;;;;;;;;5029465;27;100184;-73
2023/01/18 04:18:06;;;;;;;12.55;8.68;;;;;;;;;;5027501;27;100019;-73
2023/01/18 04:20:32;;;;;;;9.10;8.32;;;;;;;;;;5027300;27;99142;-73
2023/01/18 04:22:59;;;;;;;9.85;8.05;;;;;;;;;;5025942;28;99427;-73
2023/01/18 04:25:26;;;;;;;16.75;9.40;;;;;;;;;;5030469;27;99608;-73
2023/01/18 04:27:52;;;;;;;20.63;9.90;;;;;;;;;;5018818;28;100045;-73
2023/01/18 04:30:19;;;;;;;12.30;8.60;;;;;;;;;;5020788;28;98368;-73
2023/01/18 04:32:45;;;;;;;13.35;9.02;;;;;;;;;;5026274;28;99789;-73
2023/01/18 04:35:12;;;;;;;10.75;8.68;;;;;;;;;;5027399;27;100091;-72
2023/01/18 04:37:38;;;;;;;10.68;9.13;;;;;;;;;;5029285;28;98252;-72
2023/01/18 04:40:05;;;;;;;15.85;9.50;;;;;;;;;;5027714;27;99230;-73
2023/01/18 04:42:31;;;;;;;10.65;9.38;;;;;;;;;;5027330;27;98287;-73
2023/01/18 04:44:58;;;;;;;10.23;9.05;;;;;;;;;;5015329;28;99437;-72
2023/01/18 04:47:27;;;;;;;10.85;9.55;;;;;;;;;;5027178;27;100183;-74
2023/01/18 04:49:56;;;;;;;16.63;9.50;;;;;;;;;;5026571;28;98284;-73
2023/01/18 04:52:22;;;;;;;12.60;8.63;;;;;;;;;;5027116;27;99305;-73
2023/01/18 04:54:49;;;;;;;13.68;9.10;;;;;;;;;;5027573;27;99562;-73
2023/01/18 04:57:15;;;;;;;16.60;9.80;;;;;;;;;;5024700;27;98351;-73
2023/01/18 04:59:44;;;;;;;10.13;8.48;;;;;;;;;;5030324;27;99677;-73
2023/01/18 05:02:11;;;;;;;12.43;9.57;;;;;;;;;;5027496;27;99661;-74
2023/01/18 05:04:37;;;;;;;12.20;9.38;;;;;;;;;;5014158;27;99174;-73
2023/01/18 05:07:04;;;;;;;10.85;8.82;;;;;;;;;;5026204;27;99580;-73
2023/01/18 05:09:30;;;;;;;12.63;9.18;;;;;;;;;;5024327;27;98466;-73
2023/01/18 05:11:57;;;;;;;10.82;9.40;;;;;;;;;;5027420;27;99533;-73
2023/01/18 05:14:23;;;;;;;15.60;9.65;;;;;;;;;;5026250;28;99958;-73
2023/01/18 05:16:49;;;;;;;14.05;9.68;;;;;;;;;;5027147;27;98265;-73
2023/01/18 05:19:16;;;;;;;10.30;9.00;;;;;;;;;;5007594;28;99457;-73
2023/01/18 05:21:42;;;;;;;15.52;9.52;;;;;;;;;;5029753;27;98954;-73
2023/01/18 05:24:08;;;;;;;14.43;9.93;;;;;;;;;;5026077;27;98700;-73
2023/01/18 05:26:35;;;;;;;18.70;9.30;;;;;;;;;;5025691;28;99953;-73
2023/01/18 05:29:01;;;;;;;13.88;9.63;;;;;;;;;;5020625;28;98248;-73
2023/01/18 05:31:28;;;;;;;15.82;10.07;;;;;;;;;;5026569;28;98938;-73
2023/01/18 05:33:55;;;;;;;11.82;9.70;;;;;;;;;;5026743;27;100073;-73
2023/01/18 05:36:21;;;;;;;13.48;8.95;;;;;;;;;;5019668;28;98223;-75
2023/01/18 05:38:48;;;;;;;12.15;9.18;;;;;;;;;;5029614;28;99425;-74
2023/01/18 05:41:14;;;;;;;13.52;9.65;;;;;;;;;;5025877;27;99695;-73
2023/01/18 05:43:41;;;;;;;10.75;9.07;;;;;;;;;;5023661;27;98577;-72
2023/01/18 05:46:07;;;;;;;11.05;9.65;;;;;;;;;;5020057;28;99961;-71
2023/01/18 05:48:33;;;;;;;12.80;8.68;;;;;;;;;;5025868;27;98275;-72
2023/01/18 05:51:05;;;;;;;13.25;8.77;;;;;;;;;;5019842;27;99892;-72
2023/01/18 05:53:31;;;;;;;12.73;8.10;;;;;;;;;;5026401;27;100007;-73
2023/01/18 05:55:59;;;;;;;11.82;8.82;;;;;;;;;;5024552;28;98294;-72
2023/01/18 05:58:26;;;;;;;12.90;8.02;;;;;;;;;;5026646;27;99519;-73
2023/01/18 06:00:52;;;;;;;13.15;8.27;;;;;;;;;;5026535;28;100032;-72
2023/01/18 06:03:19;;;;;;;11.05;8.07;;;;;;;;;;5027698;27;98420;-72
2023/01/18 06:05:46;;;;;;;13.68;8.15;;;;;;;;;;5026444;27;99570;-72
2023/01/18 06:08:12;;;;;;;14.90;8.25;;;;;;;;;;5020466;27;98640;-73
2023/01/18 06:10:39;;;;;;;8.90;8.00;;;;;;;;;;5022236;27;98831;-72
2023/01/18 06:13:05;;;;;;;11.95;7.95;;;;;;;;;;5026462;28;99948;-72
2023/01/18 06:15:32;;;;;;;13.50;7.50;;;;;;;;;;5024567;27;98598;-72
2023/01/18 06:17:58;;;;;;;9.77;7.75;;;;;;;;;;5020017;28;99475;-72
2023/01/18 06:20:29;;;;;;;11.18;7.53;;;;;;;;;;5025916;27;100171;-72
2023/01/18 06:22:56;;;;;;;12.32;7.57;;;;;;;;;;5027976;28;98379;-73
2023/01/18 06:25:23;;;;;;;17.00;8.93;;;;;;;;;;5020813;27;98308;-72
2023/01/18 06:27:50;;;;;;;11.48;8.68;;;;;;;;;;5010849;28;98229;-72
2023/01/18 06:30:17;;;;;;;11.63;8.60;;;;;;;;;;5023319;28;98983;-72
2023/01/18 06:32:43;;;;;;;13.85;8.10;;;;;;;;;;5028138;27;99299;-72
2023/01/18 06:35:09;;;;;;;10.50;8.63;;;;;;;;;;5028672;27;99352;-73
2023/01/18 06:37:36;;;;;;;12.27;8.63;;;;;;;;;;5027311;28;99945;-73
2023/01/18 06:40:02;;;;;;;17.27;9.00;;;;;;;;;;5029253;27;100080;-73
2023/01/18 06:42:29;;;;;;;11.45;8.60;;;;;;;;;;5019822;27;98914;-73
2023/01/18 06:44:55;;;;;;;23.23;8.57;;;;;;;;;;5026045;28;99926;-73
2023/01/18 06:47:21;;;;;;;12.68;8.48;;;;;;;;;;5032488;28;99956;-73
2023/01/18 06:49:48;;;;;;;12.70;7.90;;;;;;;;;;5027724;28;99415;-73
2023/01/18 06:52:15;;;;;;;16.60;9.35;;;;;;;;;;5028658;28;100112;-74
2023/01/18 06:54:41;;;;;;;9.20;8.20;;;;;;;;;;5017057;28;100000;-73
2023/01/18 06:57:07;;;;;;;9.00;8.10;;;;;;;;;;5024261;28;99539;-73
2023/01/18 06:59:34;;;;;;;14.82;8.25;;;;;;;;;;5015010;27;99117;-74
2023/01/18 07:02:00;;;;;;;12.27;8.27;;;;;;;;;;5019887;27;98296;-73
2023/01/18 07:04:27;;;;;;;11.68;7.65;;;;;;;;;;5020202;27;99445;-74
2023/01/18 07:06:53;;;;;;;13.57;8.52;;;;;;;;;;5027145;28;100029;-73
2023/01/18 07:09:20;;;;;;;9.82;8.18;;;;;;;;;;5019160;28;98367;-73
2023/01/18 07:11:46;;;;;;;12.43;8.45;;;;;;;;;;5025826;27;99825;-73
2023/01/18 07:14:12;;;;;;;10.35;8.07;;;;;;;;;;5026605;28;98334;-73
2023/01/18 07:16:39;;;;;;;10.05;9.00;;;;;;;;;;5024830;28;99476;-73
2023/01/18 07:19:05;;;;;;;10.25;7.45;;;;;;;;;;5013127;27;99119;-73
2023/01/18 07:21:32;;;;;;;10.90;7.63;;;;;;;;;;5014528;28;99628;-72
2023/01/18 07:23:58;;;;;;;9.82;7.93;;;;;;;;;;5023120;28;99832;-72
2023/01/18 07:26:25;;;;;;;17.40;8.95;;;;;;;;;;5020956;28;100291;-73
2023/01/18 07:28:53;;;;;;;13.07;8.90;;;;;;;;;;5021604;28;98667;-74
2023/01/18 07:31:20;;;;;;;10.57;8.52;;;;;;;;;;5029662;27;99357;-73
2023/01/18 07:33:46;;;;;;;14.60;7.75;;;;;;;;;;5026479;27;98447;-73
2023/01/18 07:36:13;;;;;;;12.30;8.27;;;;;;;;;;5023001;28;99457;-73
2023/01/18 07:38:39;;;;;;;13.98;8.40;;;;;;;;;;5021706;27;99369;-73
2023/01/18 07:41:07;;;;;;;9.60;7.65;;;;;;;;;;5012746;28;100171;-74
2023/01/18 07:43:36;;;;;;;16.05;7.80;;;;;;;;;;5024621;28;99805;-73
2023/01/18 07:46:05;;;;;;;11.32;7.60;;;;;;;;;;5028303;28;100148;-73
2023/01/18 07:48:32;;;;;;;12.60;7.53;;;;;;;;;;5011244;27;98272;-73
2023/01/18 07:51:00;;;;;;;16.33;7.53;;;;;;;;;;5012651;28;99839;-72
2023/01/18 07:53:27;;;;;;;11.50;6.93;;;;;;;;;;5029435;27;99236;-74
2023/01/18 07:55:57;;;;;;;14.10;7.63;;;;;;;;;;5019395;28;99524;-73
2023/01/18 07:58:23;;;;;;;13.50;7.78;;;;;;;;;;5027737;27;99965;-73
2023/01/18 08:00:50;;;;;;;12.60;6.55;;;;;;;;;;5025786;28;98262;-74
2023/01/18 08:03:17;;;;;;;7.78;7.03;;;;;;;;;;5020794;27;98415;-72
2023/01/18 08:05:44;;;;;;;9.80;7.93;;;;;;;;;;5014458;27;99150;-72
2023/01/18 08:08:12;;;;;;;10.65;6.88;;;;;;;;;;5018443;27;98346;-73
2023/01/18 08:10:38;;;;;;;12.38;7.97;;;;;;;;;;5012047;27;99947;-74
2023/01/18 08:13:07;;;;;;;11.27;7.25;;;;;;;;;;5025088;27;99989;-73
2023/01/18 08:15:34;;;;;;;15.02;8.07;;;;;;;;;;5016825;27;98477;-75
2023/01/18 08:18:04;;;;;;;10.27;8.02;;;;;;;;;;5026466;27;100255;-73
2023/01/18 08:20:31;;;;;;;14.30;7.80;;;;;;;;;;5023926;27;98296;-73
2023/01/18 08:22:58;;;;;;;8.73;7.05;;;;;;;;;;5020246;27;99688;-72
2023/01/18 08:25:28;;;;;;;10.45;6.72;;;;;;;;;;5017216;27;99273;-73
2023/01/18 08:27:56;;;;;;;10.75;7.65;;;;;;;;;;5022638;27;98269;-74
2023/01/18 08:30:26;;;;;;;11.05;7.57;;;;;;;;;;5014953;27;99610;-74
2023/01/18 08:32:54;;;;;;;9.13;7.55;;;;;;;;;;5022634;27;99075;-74
2023/01/18 08:35:22;;;;;;;12.18;8.25;;;;;;;;;;5034781;27;98285;-72
2023/01/18 08:37:49;;;;;;;9.38;7.70;;;;;;;;;;5017417;27;99208;-73
2023/01/18 08:40:15;;;;;;;11.32;8.25;;;;;;;;;;5014934;27;98360;-73
2023/01/18 08:42:41;;;;;;;8.45;7.28;;;;;;;;;;5024007;28;99638;-73
2023/01/18 08:45:08;;;;;;;9.38;7.30;;;;;;;;;;5020351;27;100193;-73
2023/01/18 08:47:35;;;;;;;9.70;7.10;;;;;;;;;;5025363;27;99022;-73
2023/01/18 08:50:01;;;;;;;11.20;8.15;;;;;;;;;;5022349;27;99840;-73
2023/01/18 08:52:28;;;;;;;11.65;7.60;;;;;;;;;;5017612;27;99039;-73
2023/01/18 08:54:55;;;;;;;6.50;5.82;;;;;;;;;;5020823;27;98383;-76
2023/01/18 08:57:22;;;;;;;11.82;7.35;;;;;;;;;;5018391;27;98818;-73
2023/01/18 08:59:48;;;;;;;9.00;7.20;;;;;;;;;;5018997;27;98932;-73
2023/01/18 09:02:15;;;;;;;15.23;7.15;;;;;;;;;;5023346;27;99610;-72
2023/01/18 09:04:46;;;;;;;8.80;6.93;;;;;;;;;;5015871;27;99120;-73
2023/01/18 09:07:12;;;;;;;11.80;7.65;;;;;;;;;;5023814;27;99242;-72
2023/01/18 09:09:39;;;;;;;11.27;7.35;;;;;;;;;;5014726;28;98592;-72
2023/01/18 09:12:05;;;;;;;7.85;6.82;;;;;;;;;;5015247;27;100789;-72
2023/01/18 09:14:33;;;;;;;10.60;7.40;;;;;;;;;;5015222;27;98453;-72
2023/01/18 09:16:59;;;;;;;12.45;7.72;;;;;;;;;;5019502;27;99538;-72
2023/01/18 09:19:26;;;;;;;7.03;6.13;;;;;;;;;;5029037;27;99163;-71
2023/01/18 09:21:52;;;;;;;11.52;7.18;;;;;;;;;;5023160;27;99598;-73
2023/01/18 09:24:18;;;;;;;8.88;6.60;;;;;;;;;;5023630;27;100129;-72
2023/01/18 09:26:49;;;;;;;8.20;7.25;;;;;;;;;;5024013;27;99827;-73
2023/01/18 09:29:17;;;;;;;8.57;6.78;;;;;;;;;;5027232;27;99624;-73
2023/01/18 09:31:43;;;;;;;8.05;6.47;;;;;;;;;;5024632;27;99914;-73
2023/01/18 09:34:12;;;;;;;8.57;6.70;;;;;;;;;;5031585;27;98554;-74
2023/01/18 09:36:47;;;;;;;9.15;6.50;;;;;;;;;;5019117;27;98811;-73
2023/01/18 09:39:14;;;;;;;11.38;7.20;;;;;;;;;;5020821;27;99736;-73
2023/01/18 09:41:42;;;;;;;7.65;6.95;;;;;;;;;;5021290;27;98363;-71
2023/01/18 09:44:15;;;;;;;9.82;7.32;;;;;;;;;;5018518;27;100212;-73
2023/01/18 09:46:42;;;;;;;6.70;6.10;;;;;;;;;;5022921;27;98787;-74
2023/01/18 09:49:16;;;;;;;8.52;6.50;;;;;;;;;;5014129;27;99312;-72
2023/01/18 09:51:54;;;;;;;8.40;5.07;;;;;;;;;;5021082;28;99978;-72
2023/01/18 09:54:28;;;;;;;12.20;7.32;;;;;;;;;;5023986;28;98489;-73
2023/01/18 09:57:00;;;;;;;8.30;7.00;;;;;;;;;;5015772;27;99665;-73
2023/01/18 09:59:34;;;;;;;9.23;7.53;;;;;;;;;;5023788;27;101112;-73
2023/01/18 10:02:02;;;;;;;8.00;6.90;;;;;;;;;;5021985;27;98701;-73
2023/01/18 10:04:35;;;;;;;13.32;8.27;;;;;;;;;;5026376;27;99599;-71
2023/01/18 10:07:04;;;;;;;13.57;7.03;;;;;;;;;;5022170;27;98425;-72
2023/01/18 10:09:38;;;;;;;12.00;7.90;;;;;;;;;;5029585;27;98673;-73
2023/01/18 10:12:25;;;;;;;14.00;7.85;;;;;;;;;;5010754;28;100296;-72
2023/01/18 10:15:03;;;;;;;10.48;7.78;;;;;;;;;;5024647;27;100035;-75
2023/01/18 10:17:34;;;;;;;21.15;7.60;;;;;;;;;;5029041;28;99411;-74
2023/01/18 10:20:19;;;;;;;8.85;7.70;;;;;;;;;;5028336;27;100395;-73
2023/01/18 10:22:46;;;;;;;12.05;7.70;;;;;;;;;;5029425;28;98160;-74
2023/01/18 10:25:23;;;;;;;13.30;7.38;;;;;;;;;;5025557;28;99805;-74
2023/01/18 10:27:59;;;;;;;12.77;8.45;;;;;;;;;;5029360;28;98254;-74
2023/01/18 10:30:49;;;;;;;9.65;7.30;;;;;;;;;;5021594;27;99460;-74
2023/01/18 10:33:23;;;;;;;10.35;7.85;;;;;;;;;;4997985;28;99057;-73
2023/01/18 10:35:51;;;;;;;10.93;8.32;;;;;;;;;;5029663;27;98390;-73
2023/01/18 10:38:19;;;;;;;13.73;8.23;;;;;;;;;;5029672;28;99474;-73
2023/01/18 10:40:48;;;;;;;10.18;7.05;;;;;;;;;;5017455;27;99117;-74
2023/01/18 10:43:19;;;;;;;12.00;7.80;;;;;;;;;;5026750;27;100009;-74
2023/01/18 10:45:45;;;;;;;11.13;6.93;;;;;;;;;;5021714;27;99724;-74
2023/01/18 10:48:20;;;;;;;10.73;7.47;;;;;;;;;;5019831;28;100233;-73
2023/01/18 10:50:48;;;;;;;19.35;8.23;;;;;;;;;;5021867;28;99753;-74
2023/01/18 10:53:25;;;;;;;11.57;6.68;;;;;;;;;;5022874;28;99956;-77
2023/01/18 10:55:51;;;;;;;;;;;;;;;;;;5029961;28;98297;-73
2023/01/18 10:58:22;;;;;;;10.63;7.13;;;;;;;;;;5023331;27;129082;-74
2023/01/18 11:00:53;;;;;;;11.63;6.75;;;;;;;;;;5023414;27;98978;-75
2023/01/18 11:03:21;;;;;;;8.68;6.50;;;;;;;;;;5028590;28;98395;-74
2023/01/18 11:05:48;;;;;;;10.15;7.18;;;;;;;;;;5027521;28;99474;-73
2023/01/18 11:08:30;;;;;;;12.05;7.50;;;;;;;;;;5025053;27;100415;-74
2023/01/18 11:10:58;;;;;;;10.43;6.50;;;;;;;;;;5032459;27;98436;-73
2023/01/18 11:13:24;;;;;;;11.25;7.78;;;;;;;;;;5022266;27;99053;-74
2023/01/18 11:16:04;;;;;;;10.82;8.25;;;;;;;;;;5030723;27;98353;-74
2023/01/18 11:18:31;;;;;;;14.93;7.45;;;;;;;;;;5027752;27;99976;-74
2023/01/18 11:20:57;;;;;;;10.52;5.88;;;;;;;;;;5012889;27;99812;-74
2023/01/18 11:23:29;;;;;;;10.60;7.30;;;;;;;;;;5028684;27;98421;-74
2023/01/18 11:26:05;;;;;;;11.23;7.47;;;;;;;;;;5018535;27;99618;-74
2023/01/18 11:28:43;;;;;;;11.02;8.07;;;;;;;;;;5034336;27;100953;-74
2023/01/18 11:31:21;;;;;;;14.77;8.35;;;;;;;;;;5026018;27;98816;-74
2023/01/18 11:33:50;;;;;;;10.55;5.97;;;;;;;;;;5018024;27;98414;-74
2023/01/18 11:36:18;;;;;;;12.85;8.30;;;;;;;;;;5026131;27;99561;-74
2023/01/18 11:38:45;;;;;;;9.90;7.68;;;;;;;;;;5029842;27;99572;-73
2023/01/18 11:41:14;;;;;;;11.90;7.35;;;;;;;;;;5027174;27;100033;-73
2023/01/18 11:43:47;;;;;;;11.43;8.05;;;;;;;;;;5031548;27;98316;-73
2023/01/18 11:46:23;;;;;;;10.48;7.32;;;;;;;;;;5024974;27;99476;-73
2023/01/18 11:48:52;;;;;;;12.18;7.50;;;;;;;;;;5022217;27;100024;-73
2023/01/18 11:51:21;;;;;;;10.25;7.15;;;;;;;;;;5016340;27;98810;-73
2023/01/18 11:54:07;;;;;;;12.68;7.20;;;;;;;;;;5019403;27;99788;-74
2023/01/18 11:56:39;;;;;;;11.05;7.32;;;;;;;;;;5020909;27;100209;-73
2023/01/18 11:59:13;;;;;;;11.18;7.65;;;;;;;;;;5025295;27;99248;-73
2023/01/18 12:01:46;;;;;;;14.20;7.70;;;;;;;;;;5023519;27;100390;-74
2023/01/18 12:04:32;;;;;;;13.77;7.10;;;;;;;;;;5027086;27;98311;-73
2023/01/18 12:07:08;;;;;;;10.65;7.22;;;;;;;;;;5029152;27;99852;-74
2023/01/18 12:09:51;;;;;;;12.82;7.55;;;;;;;;;;5024697;27;99270;-74
2023/01/18 12:12:33;;;;;;;7.13;5.47;;;;;;;;;;5018390;27;98251;-74
2023/01/18 12:15:18;;;;;;;7.38;5.00;;;;;;;;;;5022800;27;99401;-74
2023/01/18 12:17:51;;;;;;;7.28;5.53;;;;;;;;;;5025253;27;99933;-74
2023/01/18 12:20:42;;;;;;;13.88;7.47;;;;;;;;;;5027564;27;98160;-73
2023/01/18 12:23:23;;;;;;;10.70;7.20;;;;;;;;;;5033989;27;100049;-74
2023/01/18 12:26:09;;;;;;;11.68;7.40;;;;;;;;;;5027865;27;99697;-74
2023/01/18 12:28:58;;;;;;;8.68;6.13;;;;;;;;;;5018395;27;98563;-74
2023/01/18 12:31:24;;;;;;;11.18;6.53;;;;;;;;;;5022914;27;98904;-74
2023/01/18 12:34:11;;;;;;;7.63;6.38;;;;;;;;;;5022015;27;98406;-75
2023/01/18 12:36:51;;;;;;;12.00;7.00;;;;;;;;;;5028284;27;99862;-73
2023/01/18 12:39:23;;;;;;;7.47;6.10;;;;;;;;;;5024780;27;100307;-74
2023/01/18 12:41:56;;;;;;;11.63;7.17;;;;;;;;;;5026649;27;98233;-73
2023/01/18 12:44:28;;;;;;;18.67;7.10;;;;;;;;;;5030982;27;99276;-74
2023/01/18 12:47:21;;;;;;;13.18;7.07;;;;;;;;;;5016343;27;99756;-73
2023/01/18 12:49:50;;;;;;;9.50;6.45;;;;;;;;;;5002831;27;100559;-74
2023/01/18 12:52:20;;;;;;;7.70;5.95;;;;;;;;;;5014644;27;100057;-73
2023/01/18 12:54:47;;;;;;;6.75;5.85;;;;;;;;;;5015719;27;101773;-73
2023/01/18 12:57:15;;;;;;;6.25;5.32;;;;;;;;;;5018645;27;101754;-73
2023/01/18 12:59:42;;;;;;;6.80;6.20;;;;;;;;;;5027211;27;100033;-73
2023/01/18 13:02:21;;;;;;;10.23;5.65;;;;;;;;;;5021912;27;98362;-74
2023/01/18 13:04:52;;;;;;;8.10;5.07;;;;;;;;;;5013354;27;100040;-72
2023/01/18 13:07:20;;;;;;;9.25;5.15;;;;;;;;;;5019928;27;98296;-73
2023/01/18 13:09:48;;;;;;;6.82;4.38;;;;;;;;;;5017573;27;100035;-73
2023/01/18 13:12:15;;;;;;;4.07;3.60;;;;;;;;;;5029801;27;99947;-73
2023/01/18 13:14:41;;;;;;;4.20;3.90;;;;;;;;;;5024357;27;98346;-73
2023/01/18 13:17:17;;;;;;;5.18;4.30;;;;;;;;;;5022659;27;100038;-73
2023/01/18 13:19:48;;;;;;;5.22;3.63;;;;;;;;;;5019422;28;100134;-73
2023/01/18 13:22:54;;;;;;;8.97;4.53;;;;;;;;;;5023083;27;98618;-74
2023/01/18 13:25:20;;;;;;;14.05;4.05;;;;;;;;;;4960076;28;100248;-73
2023/01/18 13:28:04;;;;;;;8.20;4.70;;;;;;;;;;4960379;28;100102;-74
2023/01/18 13:30:32;;;;;;;10.13;4.40;;;;;;;;;;4995780;27;100309;-73
2023/01/18 13:32:59;;;;;;;6.00;3.85;;;;;;;;;;5016887;27;99652;-73
2023/01/18 13:35:31;;;;;;;9.93;4.30;;;;;;;;;;5008314;28;100706;-74
2023/01/18 13:38:08;;;;;;;6.43;3.67;;;;;;;;;;5024855;27;99680;-75
2023/01/18 13:40:49;;;;;;;4.47;3.88;;;;;;;;;;5034347;27;99691;-74
2023/01/18 13:43:30;;;;;;;6.10;4.07;;;;;;;;;;5019168;27;98370;-73
2023/01/18 13:46:02;;;;;;;7.15;3.75;;;;;;;;;;5019610;27;99303;-73
2023/01/18 13:48:46;;;;;;;7.28;3.60;;;;;;;;;;5023722;27;100126;-73
2023/01/18 13:51:27;;;;;;;6.40;4.10;;;;;;;;;;5025764;27;98306;-73
2023/01/18 13:53:53;;;;;;;6.75;3.65;;;;;;;;;;5021752;27;99215;-74
2023/01/18 13:56:24;;;;;;;7.65;4.03;;;;;;;;;;5024022;27;98243;-72
2023/01/18 13:58:52;;;;;;;4.40;3.58;;;;;;;;;;5027991;27;99644;-73
2023/01/18 14:01:21;;;;;;;5.90;3.45;;;;;;;;;;5026039;27;100093;-73
2023/01/18 14:03:50;;;;;;;8.23;4.10;;;;;;;;;;5034031;27;98394;-73
2023/01/18 14:06:25;;;;;;;7.10;3.58;;;;;;;;;;5019605;27;99312;-73
2023/01/18 14:08:53;;;;;;;8.63;4.10;;;;;;;;;;5017462;27;100496;-74
2023/01/18 14:11:25;;;;;;;7.13;4.07;;;;;;;;;;5012720;27;99768;-74
2023/01/18 14:13:52;;;;;;;5.18;3.50;;;;;;;;;;5031554;27;99498;-75
2023/01/18 14:16:21;;;;;;;6.57;3.80;;;;;;;;;;5011695;28;98277;-73
2023/01/18 14:18:50;;;;;;;6.82;3.50;;;;;;;;;;5025037;27;99560;-74
2023/01/18 14:21:25;;;;;;;11.73;3.83;;;;;;;;;;5033960;27;100551;-74
2023/01/18 14:24:01;;;;;;;11.23;3.80;;;;;;;;;;5023146;27;98272;-74
2023/01/18 14:26:28;;;;;;;4.50;3.42;;;;;;;;;;5027387;27;99159;-74
2023/01/18 14:28:58;;;;;;;4.30;2.58;;;;;;;;;;5022119;27;101448;-73
2023/01/18 14:31:30;;;;;;;3.63;2.70;;;;;;;;;;5021164;27;98254;-74
2023/01/18 14:33:56;;;;;;;7.93;2.42;;;;;;;;;;5022043;27;98575;-74
2023/01/18 14:36:24;;;;;;;3.40;2.15;;;;;;;;;;5021734;27;98425;-74
2023/01/18 14:39:12;;;;;;;5.88;2.42;;;;;;;;;;5021675;27;98879;-74
2023/01/18 14:41:42;;;;;;;2.97;2.65;;;;;;;;;;5017910;27;100071;-73
2023/01/18 14:44:13;;;;;;;3.75;2.70;;;;;;;;;;5012289;28;98930;-74
2023/01/18 14:46:41;;;;;;;3.28;2.72;;;;;;;;;;5029061;28;99873;-74
2023/01/18 14:49:12;;;;;;;2.53;2.40;;;;;;;;;;5019674;27;99128;-74
2023/01/18 14:51:44;;;;;;;5.78;2.58;;;;;;;;;;5029934;28;98181;-74
2023/01/18 14:54:15;;;;;;;5.82;2.80;;;;;;;;;;5024801;28;99891;-74
2023/01/18 14:56:42;;;;;;;3.45;2.13;;;;;;;;;;5031781;27;99950;-73
2023/01/18 14:59:12;;;;;;;4.00;2.80;;;;;;;;;;5022888;27;100504;-73
2023/01/18 15:01:39;;;;;;;3.80;3.33;;;;;;;;;;5027959;28;100491;-74
2023/01/18 15:04:17;;;;;;;5.97;2.85;;;;;;;;;;5022751;27;98316;-73
2023/01/18 15:07:03;;;;;;;3.95;2.40;;;;;;;;;;5023431;27;99672;-73
2023/01/18 15:09:31;;;;;;;2.53;2.30;;;;;;;;;;5026657;27;98907;-73
2023/01/18 15:11:58;;;;;;;3.33;2.28;;;;;;;;;;5028654;28;98339;-73
2023/01/18 15:14:26;;;;;;;5.32;2.58;;;;;;;;;;5026044;28;100489;-74
2023/01/18 15:16:54;;;;;;;2.88;2.60;;;;;;;;;;5026347;27;100181;-73
2023/01/18 15:19:22;;;;;;;4.03;2.83;;;;;;;;;;5013830;28;98823;-73
2023/01/18 15:21:49;;;;;;;18.98;2.20;;;;;;;;;;5029089;27;98984;-73